sensor_id;sensor_type;location;lat;lon;timestamp;temperature;humidity
70151;DHT22;57517;43.562;19.540;2022-08-25T08:23:49;691.90;1894.40
70151;DHT22;57517;43.562;19.540;2022-08-25T08:26:16;691.90;1894.40
70151;DHT22;57517;43.562;19.540;2022-08-25T08:28:42;692.00;1894.40
70151;DHT22;57517;43.562;19.540;2022-08-25T08:31:08;692.00;1894.40
70151;DHT22;57517;43.562;19.540;2022-08-25T08:33:34;716.90;1868.80
70151;DHT22;57517;43.562;19.540;2022-08-25T08:36:07;691.70;1920.00
70151;DHT22;57517;43.562;19.540;2022-08-25T08:38:34;691.50;1945.60
70151;DHT22;57517;43.562;19.540;2022-08-25T08:41:16;691.70;1920.00
70151;DHT22;57517;43.562;19.540;2022-08-25T08:44:40;691.70;1920.00
70151;DHT22;57517;43.562;19.540;2022-08-25T08:52:49;717.30;1843.20
70151;DHT22;57517;43.562;19.540;2022-08-25T10:17:15;742.90;1766.40
70151;DHT22;57517;43.562;19.540;2022-08-25T10:19:42;743.30;1740.80
70151;DHT22;57517;43.562;19.540;2022-08-25T10:45:22;768.40;1664.00
70151;DHT22;57517;43.562;19.540;2022-08-25T10:54:15;743.00;1715.20
70151;DHT22;57517;43.562;19.540;2022-08-25T10:56:49;742.80;1740.80
70151;DHT22;57517;43.562;19.540;2022-08-25T10:59:40;742.80;1766.40
70151;DHT22;57517;43.562;19.540;2022-08-25T11:07:25;742.80;1715.20
70151;DHT22;57517;43.562;19.540;2022-08-25T11:09:57;742.90;1689.60
70151;DHT22;57517;43.562;19.540;2022-08-25T11:12:30;743.20;1689.60
70151;DHT22;57517;43.562;19.540;2022-08-25T11:18:00;743.30;1638.40
70151;DHT22;57517;43.562;19.540;2022-08-25T11:20:42;768.10;1638.40
70151;DHT22;57517;43.562;19.540;2022-08-25T11:23:19;768.00;1638.40
70151;DHT22;57517;43.562;19.540;2022-08-25T11:25:50;768.30;1612.80
70151;DHT22;57517;43.562;19.540;2022-08-25T11:28:29;768.00;1638.40
70151;DHT22;57517;43.562;19.540;2022-08-25T11:30:59;768.40;1612.80
70151;DHT22;57517;43.562;19.540;2022-08-25T11:33:28;768.40;1612.80
70151;DHT22;57517;43.562;19.540;2022-08-25T11:41:55;768.00;1612.80
70151;DHT22;57517;43.562;19.540;2022-08-25T11:50:22;768.30;1561.60
70151;DHT22;57517;43.562;19.540;2022-08-25T11:53:17;768.40;1561.60
70151;DHT22;57517;43.562;19.540;2022-08-25T11:56:02;768.50;1561.60
70151;DHT22;57517;43.562;19.540;2022-08-25T12:12:28;742.90;1638.40
70151;DHT22;57517;43.562;19.540;2022-08-25T12:23:33;743.10;1561.60
70151;DHT22;57517;43.562;19.540;2022-08-25T12:31:46;768.30;1587.20
70151;DHT22;57517;43.562;19.540;2022-08-25T12:37:10;768.20;1561.60
70151;DHT22;57517;43.562;19.540;2022-08-25T12:40:04;768.20;1561.60
70151;DHT22;57517;43.562;19.540;2022-08-25T12:42:38;768.20;1561.60
70151;DHT22;57517;43.562;19.540;2022-08-25T12:47:47;768.20;1536.00
70151;DHT22;57517;43.562;19.540;2022-08-25T12:50:43;768.20;1561.60
70151;DHT22;57517;43.562;19.540;2022-08-25T12:53:21;768.30;1536.00
70151;DHT22;57517;43.562;19.540;2022-08-25T12:55:53;768.30;1510.40
70151;DHT22;57517;43.562;19.540;2022-08-25T12:58:23;768.20;1536.00
70151;DHT22;57517;43.562;19.540;2022-08-25T13:01:02;768.30;1484.80
70151;DHT22;57517;43.562;19.540;2022-08-25T13:09:06;743.10;1587.20
70151;DHT22;57517;43.562;19.540;2022-08-25T13:11:56;743.20;1561.60
70151;DHT22;57517;43.562;19.540;2022-08-25T13:14:42;743.10;1561.60
70151;DHT22;57517;43.562;19.540;2022-08-25T13:17:08;743.10;1561.60
70151;DHT22;57517;43.562;19.540;2022-08-25T13:19:35;743.20;1587.20
70151;DHT22;57517;43.562;19.540;2022-08-25T13:22:12;743.30;1561.60
70151;DHT22;57517;43.562;19.540;2022-08-25T13:24:41;768.00;1587.20
70151;DHT22;57517;43.562;19.540;2022-08-25T13:27:09;743.30;1561.60
70151;DHT22;57517;43.562;19.540;2022-08-25T13:29:56;768.10;1561.60
70151;DHT22;57517;43.562;19.540;2022-08-25T13:32:28;768.10;1536.00
70151;DHT22;57517;43.562;19.540;2022-08-25T13:35:24;768.10;1536.00
70151;DHT22;57517;43.562;19.540;2022-08-25T13:37:50;768.20;1536.00
70151;DHT22;57517;43.562;19.540;2022-08-25T13:40:24;768.20;1536.00
70151;DHT22;57517;43.562;19.540;2022-08-25T13:43:11;768.30;1484.80
70151;DHT22;57517;43.562;19.540;2022-08-25T13:45:46;768.20;1510.40
70151;DHT22;57517;43.562;19.540;2022-08-25T13:48:14;768.10;1536.00
70151;DHT22;57517;43.562;19.540;2022-08-25T13:51:39;768.10;1510.40
70151;DHT22;57517;43.562;19.540;2022-08-25T13:54:04;768.00;1510.40
70151;DHT22;57517;43.562;19.540;2022-08-25T13:56:48;743.20;1510.40
70151;DHT22;57517;43.562;19.540;2022-08-25T13:59:28;743.10;1536.00
70151;DHT22;57517;43.562;19.540;2022-08-25T14:01:55;743.00;1587.20
70151;DHT22;57517;43.562;19.540;2022-08-25T14:04:28;742.90;1561.60
70151;DHT22;57517;43.562;19.540;2022-08-25T14:07:12;742.90;1561.60
70151;DHT22;57517;43.562;19.540;2022-08-25T14:09:57;742.90;1561.60
70151;DHT22;57517;43.562;19.540;2022-08-25T14:12:33;742.90;1536.00
70151;DHT22;57517;43.562;19.540;2022-08-25T14:20:32;743.20;1536.00
70151;DHT22;57517;43.562;19.540;2022-08-25T14:23:09;743.30;1510.40
70151;DHT22;57517;43.562;19.540;2022-08-25T14:25:39;743.00;1484.80
70151;DHT22;57517;43.562;19.540;2022-08-25T14:28:13;742.90;1536.00
70151;DHT22;57517;43.562;19.540;2022-08-25T14:30:42;742.90;1536.00
70151;DHT22;57517;43.562;19.540;2022-08-25T14:33:09;742.90;1510.40
70151;DHT22;57517;43.562;19.540;2022-08-25T14:35:36;742.80;1536.00
70151;DHT22;57517;43.562;19.540;2022-08-25T14:38:08;742.80;1536.00
70151;DHT22;57517;43.562;19.540;2022-08-25T14:40:35;742.80;1561.60
70151;DHT22;57517;43.562;19.540;2022-08-25T14:43:00;742.70;1561.60
70151;DHT22;57517;43.562;19.540;2022-08-25T14:45:26;742.60;1561.60
70151;DHT22;57517;43.562;19.540;2022-08-25T14:47:52;742.60;1561.60
70151;DHT22;57517;43.562;19.540;2022-08-25T14:50:21;742.60;1587.20
70151;DHT22;57517;43.562;19.540;2022-08-25T14:52:47;742.50;1587.20
70151;DHT22;57517;43.562;19.540;2022-08-25T14:55:13;742.40;1587.20
70151;DHT22;57517;43.562;19.540;2022-08-25T14:57:38;742.40;1587.20
70151;DHT22;57517;43.562;19.540;2022-08-25T15:00:05;717.70;1561.60
70151;DHT22;57517;43.562;19.540;2022-08-25T15:02:35;717.70;1561.60
70151;DHT22;57517;43.562;19.540;2022-08-25T15:05:03;717.70;1561.60
70151;DHT22;57517;43.562;19.540;2022-08-25T15:07:31;717.70;1561.60
70151;DHT22;57517;43.562;19.540;2022-08-25T15:10:16;717.70;1561.60
70151;DHT22;57517;43.562;19.540;2022-08-25T15:12:43;717.70;1561.60
70151;DHT22;57517;43.562;19.540;2022-08-25T15:15:09;717.70;1561.60
70151;DHT22;57517;43.562;19.540;2022-08-25T15:17:37;717.70;1587.20
70151;DHT22;57517;43.562;19.540;2022-08-25T15:20:04;717.70;1561.60
70151;DHT22;57517;43.562;19.540;2022-08-25T15:22:29;742.40;1587.20
70151;DHT22;57517;43.562;19.540;2022-08-25T15:24:55;742.40;1587.20
70151;DHT22;57517;43.562;19.540;2022-08-25T15:27:22;742.40;1587.20
70151;DHT22;57517;43.562;19.540;2022-08-25T15:29:47;742.40;1587.20
70151;DHT22;57517;43.562;19.540;2022-08-25T15:32:13;742.40;1587.20
70151;DHT22;57517;43.562;19.540;2022-08-25T15:34:40;717.70;1561.60
70151;DHT22;57517;43.562;19.540;2022-08-25T15:37:13;717.60;1561.60
70151;DHT22;57517;43.562;19.540;2022-08-25T15:39:41;717.60;1561.60
70151;DHT22;57517;43.562;19.540;2022-08-25T15:42:08;717.60;1536.00
70151;DHT22;57517;43.562;19.540;2022-08-25T15:44:34;717.60;1561.60
70151;DHT22;57517;43.562;19.540;2022-08-25T15:47:00;717.60;1587.20
70151;DHT22;57517;43.562;19.540;2022-08-25T15:49:26;717.60;1587.20
70151;DHT22;57517;43.562;19.540;2022-08-25T15:51:53;717.60;1587.20
70151;DHT22;57517;43.562;19.540;2022-08-25T15:54:19;717.50;1587.20
70151;DHT22;57517;43.562;19.540;2022-08-25T15:56:46;717.60;1587.20
70151;DHT22;57517;43.562;19.540;2022-08-25T15:59:13;717.60;1587.20
70151;DHT22;57517;43.562;19.540;2022-08-25T16:01:39;717.60;1587.20
70151;DHT22;57517;43.562;19.540;2022-08-25T16:04:06;717.50;1587.20
70151;DHT22;57517;43.562;19.540;2022-08-25T16:06:32;717.50;1587.20
70151;DHT22;57517;43.562;19.540;2022-08-25T16:08:59;717.40;1612.80
70151;DHT22;57517;43.562;19.540;2022-08-25T16:11:27;717.50;1612.80
70151;DHT22;57517;43.562;19.540;2022-08-25T16:13:54;717.50;1638.40
70151;DHT22;57517;43.562;19.540;2022-08-25T16:16:24;717.40;1638.40
70151;DHT22;57517;43.562;19.540;2022-08-25T16:18:51;717.40;1638.40
70151;DHT22;57517;43.562;19.540;2022-08-25T16:21:29;717.40;1612.80
70151;DHT22;57517;43.562;19.540;2022-08-25T16:24:00;717.40;1638.40
70151;DHT22;57517;43.562;19.540;2022-08-25T16:26:27;717.30;1638.40
70151;DHT22;57517;43.562;19.540;2022-08-25T16:28:53;717.30;1612.80
70151;DHT22;57517;43.562;19.540;2022-08-25T16:31:19;717.20;1638.40
70151;DHT22;57517;43.562;19.540;2022-08-25T16:33:46;717.20;1638.40
70151;DHT22;57517;43.562;19.540;2022-08-25T16:36:21;717.00;1689.60
70151;DHT22;57517;43.562;19.540;2022-08-25T16:38:48;716.90;1689.60
70151;DHT22;57517;43.562;19.540;2022-08-25T16:41:17;716.90;1689.60
70151;DHT22;57517;43.562;19.540;2022-08-25T16:43:44;716.90;1689.60
70151;DHT22;57517;43.562;19.540;2022-08-25T16:46:11;716.90;1715.20
70151;DHT22;57517;43.562;19.540;2022-08-25T16:48:39;716.80;1715.20
70151;DHT22;57517;43.562;19.540;2022-08-25T16:51:15;716.80;1715.20
70151;DHT22;57517;43.562;19.540;2022-08-25T16:53:42;692.10;1715.20
70151;DHT22;57517;43.562;19.540;2022-08-25T16:56:27;692.10;1715.20
70151;DHT22;57517;43.562;19.540;2022-08-25T16:58:55;692.00;1715.20
70151;DHT22;57517;43.562;19.540;2022-08-25T17:01:21;692.00;1740.80
70151;DHT22;57517;43.562;19.540;2022-08-25T17:03:51;692.00;1740.80
70151;DHT22;57517;43.562;19.540;2022-08-25T17:06:17;692.00;1792.00
70151;DHT22;57517;43.562;19.540;2022-08-25T17:08:43;691.80;1843.20
70151;DHT22;57517;43.562;19.540;2022-08-25T17:11:15;691.80;1817.60
70151;DHT22;57517;43.562;19.540;2022-08-25T17:13:45;691.70;1868.80
70151;DHT22;57517;43.562;19.540;2022-08-25T17:16:12;691.80;1868.80
70151;DHT22;57517;43.562;19.540;2022-08-25T17:18:38;691.60;1894.40
70151;DHT22;57517;43.562;19.540;2022-08-25T17:21:09;691.60;1894.40
70151;DHT22;57517;43.562;19.540;2022-08-25T17:23:37;691.50;1920.00
70151;DHT22;57517;43.562;19.540;2022-08-25T17:26:04;691.30;1920.00
70151;DHT22;57517;43.562;19.540;2022-08-25T17:28:32;691.20;1945.60
70151;DHT22;57517;43.562;19.540;2022-08-25T17:30:58;691.20;1945.60
70151;DHT22;57517;43.562;19.540;2022-08-25T17:33:24;666.50;1996.80
70151;DHT22;57517;43.562;19.540;2022-08-25T17:35:52;691.20;1971.20
70151;DHT22;57517;43.562;19.540;2022-08-25T17:38:20;666.40;1996.80
70151;DHT22;57517;43.562;19.540;2022-08-25T17:40:55;666.40;2022.40
70151;DHT22;57517;43.562;19.540;2022-08-25T17:43:23;666.40;2022.40
70151;DHT22;57517;43.562;19.540;2022-08-25T17:45:50;666.10;2022.40
70151;DHT22;57517;43.562;19.540;2022-08-25T17:48:16;666.10;2022.40
70151;DHT22;57517;43.562;19.540;2022-08-25T17:50:43;666.00;2022.40
70151;DHT22;57517;43.562;19.540;2022-08-25T17:53:09;665.80;2048.00
70151;DHT22;57517;43.562;19.540;2022-08-25T17:55:36;640.90;2073.60
70151;DHT22;57517;43.562;19.540;2022-08-25T17:58:02;640.90;2073.60
70151;DHT22;57517;43.562;19.540;2022-08-25T18:00:28;640.90;2073.60
70151;DHT22;57517;43.562;19.540;2022-08-25T18:02:54;640.80;2099.20
70151;DHT22;57517;43.562;19.540;2022-08-25T18:05:22;640.90;2073.60
70151;DHT22;57517;43.562;19.540;2022-08-25T18:07:48;640.80;2099.20
70151;DHT22;57517;43.562;19.540;2022-08-25T18:10:14;640.80;2099.20
70151;DHT22;57517;43.562;19.540;2022-08-25T18:12:41;640.80;2099.20
70151;DHT22;57517;43.562;19.540;2022-08-25T18:15:07;640.50;2099.20
70151;DHT22;57517;43.562;19.540;2022-08-25T18:17:36;640.40;2150.40
70151;DHT22;57517;43.562;19.540;2022-08-25T18:20:04;640.30;2176.00
70151;DHT22;57517;43.562;19.540;2022-08-25T18:22:33;640.30;2176.00
70151;DHT22;57517;43.562;19.540;2022-08-25T18:25:01;640.30;2176.00
70151;DHT22;57517;43.562;19.540;2022-08-25T18:27:32;640.20;2176.00
70151;DHT22;57517;43.562;19.540;2022-08-25T18:29:58;640.20;2201.60
70151;DHT22;57517;43.562;19.540;2022-08-25T18:32:25;640.20;2201.60
70151;DHT22;57517;43.562;19.540;2022-08-25T18:34:52;640.00;2201.60
70151;DHT22;57517;43.562;19.540;2022-08-25T18:37:17;615.30;2227.20
70151;DHT22;57517;43.562;19.540;2022-08-25T18:40:03;615.20;2252.80
70151;DHT22;57517;43.562;19.540;2022-08-25T18:42:51;615.10;2278.40
70151;DHT22;57517;43.562;19.540;2022-08-25T18:45:18;615.20;2252.80
70151;DHT22;57517;43.562;19.540;2022-08-25T18:47:44;615.10;2278.40
70151;DHT22;57517;43.562;19.540;2022-08-25T18:50:10;615.10;2278.40
70151;DHT22;57517;43.562;19.540;2022-08-25T18:52:36;615.10;2278.40
70151;DHT22;57517;43.562;19.540;2022-08-25T18:55:02;615.00;2278.40
70151;DHT22;57517;43.562;19.540;2022-08-25T18:57:28;614.90;2304.00
70151;DHT22;57517;43.562;19.540;2022-08-25T18:59:54;614.80;2329.60
70151;DHT22;57517;43.562;19.540;2022-08-25T19:02:20;614.70;2380.80
70151;DHT22;57517;43.562;19.540;2022-08-25T19:04:46;614.60;2380.80
70151;DHT22;57517;43.562;19.540;2022-08-25T19:07:17;614.70;2380.80
70151;DHT22;57517;43.562;19.540;2022-08-25T19:09:43;614.70;2355.20
70151;DHT22;57517;43.562;19.540;2022-08-25T19:12:08;614.70;2355.20
70151;DHT22;57517;43.562;19.540;2022-08-25T19:14:34;614.70;2380.80
70151;DHT22;57517;43.562;19.540;2022-08-25T19:17:00;614.60;2380.80
70151;DHT22;57517;43.562;19.540;2022-08-25T19:19:26;614.60;2406.40
70151;DHT22;57517;43.562;19.540;2022-08-25T19:21:52;614.40;2432.00
70151;DHT22;57517;43.562;19.540;2022-08-25T19:24:18;589.50;2432.00
70151;DHT22;57517;43.562;19.540;2022-08-25T19:26:44;589.50;2432.00
70151;DHT22;57517;43.562;19.540;2022-08-25T19:29:13;589.40;2432.00
70151;DHT22;57517;43.562;19.540;2022-08-25T19:31:41;589.50;2432.00
70151;DHT22;57517;43.562;19.540;2022-08-25T19:34:10;614.40;2432.00
70151;DHT22;57517;43.562;19.540;2022-08-25T19:36:37;614.50;2432.00
70151;DHT22;57517;43.562;19.540;2022-08-25T19:39:05;614.50;2432.00
70151;DHT22;57517;43.562;19.540;2022-08-25T19:41:32;614.50;2432.00
70151;DHT22;57517;43.562;19.540;2022-08-25T19:44:00;614.40;2432.00
70151;DHT22;57517;43.562;19.540;2022-08-25T19:46:33;614.40;2432.00
70151;DHT22;57517;43.562;19.540;2022-08-25T19:49:11;614.40;2432.00
70151;DHT22;57517;43.562;19.540;2022-08-25T19:51:40;614.60;2432.00
70151;DHT22;57517;43.562;19.540;2022-08-25T19:54:07;614.60;2432.00
70151;DHT22;57517;43.562;19.540;2022-08-25T19:56:33;614.60;2432.00
70151;DHT22;57517;43.562;19.540;2022-08-25T19:59:00;614.50;2432.00
70151;DHT22;57517;43.562;19.540;2022-08-25T20:01:27;614.40;2432.00
70151;DHT22;57517;43.562;19.540;2022-08-25T20:03:54;614.60;2432.00
70151;DHT22;57517;43.562;19.540;2022-08-25T20:06:19;614.40;2432.00
70151;DHT22;57517;43.562;19.540;2022-08-25T20:08:45;589.70;2432.00
70151;DHT22;57517;43.562;19.540;2022-08-25T20:11:11;589.70;2432.00
70151;DHT22;57517;43.562;19.540;2022-08-25T20:13:37;589.60;2432.00
70151;DHT22;57517;43.562;19.540;2022-08-25T20:16:03;589.50;2432.00
70151;DHT22;57517;43.562;19.540;2022-08-25T20:18:29;589.30;2432.00
70151;DHT22;57517;43.562;19.540;2022-08-25T20:20:55;589.20;2432.00
70151;DHT22;57517;43.562;19.540;2022-08-25T20:23:21;589.10;2432.00
70151;DHT22;57517;43.562;19.540;2022-08-25T20:26:07;589.10;2432.00
70151;DHT22;57517;43.562;19.540;2022-08-25T20:28:33;589.10;2432.00
70151;DHT22;57517;43.562;19.540;2022-08-25T20:30:59;589.10;2432.00
70151;DHT22;57517;43.562;19.540;2022-08-25T20:33:25;588.90;2432.00
70151;DHT22;57517;43.562;19.540;2022-08-25T20:35:51;588.80;2432.00
70151;DHT22;57517;43.562;19.540;2022-08-25T20:38:16;588.90;2432.00
70151;DHT22;57517;43.562;19.540;2022-08-25T20:40:42;588.90;2432.00
70151;DHT22;57517;43.562;19.540;2022-08-25T20:43:08;589.00;2432.00
70151;DHT22;57517;43.562;19.540;2022-08-25T20:45:34;588.90;2432.00
70151;DHT22;57517;43.562;19.540;2022-08-25T20:48:00;589.00;2432.00
70151;DHT22;57517;43.562;19.540;2022-08-25T20:50:26;588.90;2432.00
70151;DHT22;57517;43.562;19.540;2022-08-25T20:52:52;588.80;2432.00
70151;DHT22;57517;43.562;19.540;2022-08-25T20:55:21;564.10;2432.00
70151;DHT22;57517;43.562;19.540;2022-08-25T20:57:47;588.80;2432.00
70151;DHT22;57517;43.562;19.540;2022-08-25T21:00:15;588.80;2432.00
70151;DHT22;57517;43.562;19.540;2022-08-25T21:02:41;588.90;2432.00
70151;DHT22;57517;43.562;19.540;2022-08-25T21:05:07;588.90;2432.00
70151;DHT22;57517;43.562;19.540;2022-08-25T21:07:33;588.80;2432.00
70151;DHT22;57517;43.562;19.540;2022-08-25T21:09:59;563.90;2432.00
70151;DHT22;57517;43.562;19.540;2022-08-25T21:12:25;563.80;2432.00
70151;DHT22;57517;43.562;19.540;2022-08-25T21:14:51;563.60;2432.00
70151;DHT22;57517;43.562;19.540;2022-08-25T21:17:17;563.50;2432.00
70151;DHT22;57517;43.562;19.540;2022-08-25T21:19:43;563.40;2432.00
70151;DHT22;57517;43.562;19.540;2022-08-25T21:22:10;563.40;2432.00
70151;DHT22;57517;43.562;19.540;2022-08-25T21:24:36;563.40;2432.00
70151;DHT22;57517;43.562;19.540;2022-08-25T21:27:03;563.30;2432.00
70151;DHT22;57517;43.562;19.540;2022-08-25T21:29:29;538.50;2406.40
70151;DHT22;57517;43.562;19.540;2022-08-25T21:31:57;563.30;2432.00
70151;DHT22;57517;43.562;19.540;2022-08-25T21:34:23;563.40;2432.00
70151;DHT22;57517;43.562;19.540;2022-08-25T21:36:50;563.60;2432.00
70151;DHT22;57517;43.562;19.540;2022-08-25T21:39:16;563.80;2432.00
70151;DHT22;57517;43.562;19.540;2022-08-25T21:41:42;563.60;2432.00
70151;DHT22;57517;43.562;19.540;2022-08-25T21:44:09;563.90;2432.00
70151;DHT22;57517;43.562;19.540;2022-08-25T21:46:35;563.80;2432.00
70151;DHT22;57517;43.562;19.540;2022-08-25T21:49:03;563.50;2432.00
70151;DHT22;57517;43.562;19.540;2022-08-25T21:51:32;563.50;2432.00
70151;DHT22;57517;43.562;19.540;2022-08-25T21:54:04;563.40;2432.00
70151;DHT22;57517;43.562;19.540;2022-08-25T21:56:43;563.20;2432.00
70151;DHT22;57517;43.562;19.540;2022-08-25T21:59:14;563.40;2432.00
70151;DHT22;57517;43.562;19.540;2022-08-25T22:01:41;563.50;2432.00
70151;DHT22;57517;43.562;19.540;2022-08-25T22:04:08;563.50;2432.00
70151;DHT22;57517;43.562;19.540;2022-08-25T22:06:34;563.60;2432.00
70151;DHT22;57517;43.562;19.540;2022-08-25T22:09:02;563.70;2432.00
70151;DHT22;57517;43.562;19.540;2022-08-25T22:11:28;563.80;2432.00
70151;DHT22;57517;43.562;19.540;2022-08-25T22:13:55;563.80;2432.00
70151;DHT22;57517;43.562;19.540;2022-08-25T22:16:21;563.70;2432.00
70151;DHT22;57517;43.562;19.540;2022-08-25T22:18:48;563.70;2432.00
70151;DHT22;57517;43.562;19.540;2022-08-25T22:21:15;563.60;2432.00
70151;DHT22;57517;43.562;19.540;2022-08-25T22:23:41;563.50;2432.00
70151;DHT22;57517;43.562;19.540;2022-08-25T22:26:08;563.40;2432.00
70151;DHT22;57517;43.562;19.540;2022-08-25T22:28:33;563.40;2432.00
70151;DHT22;57517;43.562;19.540;2022-08-25T22:31:01;563.40;2432.00
70151;DHT22;57517;43.562;19.540;2022-08-25T22:33:28;563.50;2432.00
70151;DHT22;57517;43.562;19.540;2022-08-25T22:35:54;563.60;2432.00
70151;DHT22;57517;43.562;19.540;2022-08-25T22:38:20;563.60;2432.00
70151;DHT22;57517;43.562;19.540;2022-08-25T22:40:46;563.40;2432.00
70151;DHT22;57517;43.562;19.540;2022-08-25T22:43:12;563.40;2432.00
70151;DHT22;57517;43.562;19.540;2022-08-25T22:45:38;563.50;2432.00
70151;DHT22;57517;43.562;19.540;2022-08-25T22:48:04;563.40;2432.00
70151;DHT22;57517;43.562;19.540;2022-08-25T22:50:33;563.40;2432.00
70151;DHT22;57517;43.562;19.540;2022-08-25T22:53:00;563.40;2432.00
70151;DHT22;57517;43.562;19.540;2022-08-25T22:55:26;563.20;2432.00
70151;DHT22;57517;43.562;19.540;2022-08-25T22:57:52;563.30;2432.00
70151;DHT22;57517;43.562;19.540;2022-08-25T23:00:19;563.30;2432.00
70151;DHT22;57517;43.562;19.540;2022-08-25T23:02:45;563.40;2432.00
70151;DHT22;57517;43.562;19.540;2022-08-25T23:05:13;563.50;2432.00
70151;DHT22;57517;43.562;19.540;2022-08-25T23:07:39;563.40;2432.00
70151;DHT22;57517;43.562;19.540;2022-08-25T23:10:09;563.40;2432.00
70151;DHT22;57517;43.562;19.540;2022-08-25T23:12:36;563.40;2432.00
70151;DHT22;57517;43.562;19.540;2022-08-25T23:15:06;563.40;2432.00
70151;DHT22;57517;43.562;19.540;2022-08-25T23:17:32;563.40;2432.00
70151;DHT22;57517;43.562;19.540;2022-08-25T23:20:00;563.50;2432.00
70151;DHT22;57517;43.562;19.540;2022-08-25T23:22:45;563.30;2432.00
70151;DHT22;57517;43.562;19.540;2022-08-25T23:25:11;563.30;2432.00
70151;DHT22;57517;43.562;19.540;2022-08-25T23:27:37;538.40;2406.40
